Home > Products > Valid Products > TAF

000
FTUS44 KFWD 011300 CCA
TAFFTW
TAF COR
KFTW 011313Z 0113/0212 18015KT P6SM SCT016
     FM011500 18018KT P6SM FEW020 SCT050=



000
FTUS44 KFWD 011300 AAA
TAFFTW
TAF AMD
KFTW 011311Z 0113/0212 18015KT P6SM BKN016
     FM011500 18018KT P6SM FEW020 SCT050=



000
FTUS44 KFWD 011300 AAA
TAFDFW
TAF AMD
KDFW 011311Z 0113/0218 18015KT P6SM BKN015
     FM011500 18018KT P6SM FEW020 SCT050=



000
FTUS44 KFWD 011200 AAA
TAFACT
TAF AMD
KACT 011251Z 0113/0212 18015KT P6SM SCT050=



000
FTUS44 KFWD 011100
TAFACT
TAF
KACT 011122Z 0112/0212 17012KT P6SM SCT020
      TEMPO 0112/0114 BKN020
     FM011400 18016KT P6SM SCT050=



000
FTUS44 KFWD 011100
TAFFTW
TAF
KFTW 011122Z 0112/0212 18016KT P6SM SCT050=



000
FTUS44 KFWD 011100
TAFDFW
TAF
KDFW 011122Z 0112/0218 18018KT P6SM SCT020
     FM011500 18018KT P6SM SCT050=



000
FTUS44 KFWD 010900 AAB
TAFFTW
TAF AMD
KFTW 010901Z 0109/0206 17016KT P6SM SCT015
     FM011000 18015KT P6SM BKN018
     FM011600 18015KT P6SM SCT040=



000
FTUS44 KFWD 010900 AAB
TAFDFW
TAF AMD
KDFW 010901Z 0109/0212 17015KT P6SM SCT015
     FM011000 18016KT P6SM BKN018
     FM011600 18015KT P6SM SCT040=



000
FTUS44 KFWD 010900 AAB
TAFACT
TAF AMD
KACT 010901Z 0109/0206 18014KT P6SM BKN018
     FM011600 18015KT P6SM BKN025
     FM011800 18015KT P6SM SCT040=



000
FTUS44 KFWD 010800 AAA
TAFDFW
TAF AMD
KDFW 010800Z 0108/0212 17015KT P6SM FEW300
     FM011000 18016KT P6SM BKN015
     FM011600 18015KT P6SM SCT040=



000
FTUS44 KFWD 010800 AAA
TAFFTW
TAF AMD
KFTW 010800Z 0108/0206 17017KT P6SM FEW300
     FM011000 18014KT P6SM BKN015
     FM011600 18015KT P6SM SCT040=



000
FTUS44 KFWD 010700 AAA
TAFACT
TAF AMD
KACT 010753Z 0108/0206 18014KT P6SM BKN015
     FM011600 18015KT P6SM BKN025
     FM011800 18015KT P6SM SCT040=



000
FTUS44 KFWD 010500
TAFACT
TAF
KACT 010520Z 0106/0206 16016KT P6SM FEW300
     FM011100 18011KT P6SM BKN015
     FM011600 18015KT P6SM BKN025
     FM011800 18015KT P6SM SCT040=



000
FTUS44 KFWD 010500
TAFDFW
TAF
KDFW 010520Z 0106/0212 17015KT P6SM FEW300
     FM011200 18014KT P6SM BKN020
     FM011600 18015KT P6SM SCT040=



000
FTUS44 KFWD 010500
TAFFTW
TAF
KFTW 010520Z 0106/0206 17015KT P6SM FEW300
     FM011200 18014KT P6SM BKN020
     FM011600 18015KT P6SM SCT040=



000
FTUS44 KFWD 010300 AAA
TAFFTW
TAF AMD
KFTW 010306Z 0103/0124 17014KT P6SM FEW300
     FM011200 18014KT P6SM BKN020
     FM011600 18015KT P6SM SCT040=



000
FTUS44 KFWD 010300 AAA
TAFDFW
TAF AMD
KDFW 010306Z 0103/0206 17015KT P6SM FEW300
     FM011200 18014KT P6SM BKN020
     FM011600 18015KT P6SM SCT040=



000
FTUS44 KFWD 010300 AAA
TAFACT
TAF AMD
KACT 010306Z 0103/0124 17013KT P6SM FEW300
     FM011300 18011KT P6SM BKN015
     FM011600 18015KT P6SM BKN025
     FM011800 18015KT P6SM SCT040=



000
FTUS44 KFWD 312300
TAFFTW
TAF
KFTW 312336Z 0100/0124 17014KT P6SM FEW050
     FM011200 18014KT P6SM BKN020
     FM011600 18015KT P6SM SCT040=



000
FTUS44 KFWD 312300
TAFDFW
TAF
KDFW 312336Z 0100/0206 17015KT P6SM FEW050
     FM011200 18014KT P6SM BKN020
     FM011600 18015KT P6SM SCT040=



000
FTUS44 KFWD 312300
TAFACT
TAF
KACT 312336Z 0100/0124 17013KT P6SM FEW060
     FM011300 18011KT P6SM BKN015
     FM011600 18015KT P6SM BKN025
     FM011800 18015KT P6SM SCT040=



000
FTUS44 KFWD 312000 AAA
TAFDFW
TAF AMD
KDFW 312052Z 3121/0124 17015KT P6SM SCT050=



000
FTUS44 KFWD 312000 AAA
TAFFTW
TAF AMD
KFTW 312052Z 3121/0118 17014KT P6SM SCT050=



000
FTUS44 KFWD 312000 AAA
TAFACT
TAF AMD
KACT 312052Z 3121/0118 17013KT P6SM SCT035
     FM011300 18011KT P6SM BKN018
     FM011600 18015KT P6SM BKN025=



000
FTUS44 KFWD 311700
TAFFTW
TAF
KFTW 311733Z 3118/0118 17014KT P6SM SCT050=



000
FTUS44 KFWD 311700
TAFACT
TAF
KACT 311733Z 3118/0118 17013KT P6SM SCT035
     FM011300 18011KT P6SM BKN018
     FM011600 18015KT P6SM BKN025=



000
FTUS44 KFWD 311700
TAFDFW
TAF
KDFW 311733Z 3118/0124 17015KT P6SM SCT050=



000
FTUS44 KFWD 311400 AAA
TAFFTW
TAF AMD
KFTW 311456Z 3115/0112 17013KT P6SM SCT050=



000
FTUS44 KFWD 311400 AAA
TAFACT
TAF AMD
KACT 311456Z 3115/0112 17009KT P6SM SCT020
      TEMPO 3116/3117 BKN020
     FM311800 17013KT P6SM SCT035=



000
FTUS44 KFWD 311400 AAA
TAFDFW
TAF AMD
KDFW 311456Z 3115/0118 17013KT P6SM SCT050=



000
FTUS44 KFWD 311100
TAFFTW
TAF
KFTW 311130Z 3112/0112 16007KT P6SM SCT020 SCT300
     FM311600 18013KT P6SM SCT050=



000
FTUS44 KFWD 311100
TAFACT
TAF
KACT 311130Z 3112/0112 18009KT P6SM FEW020
     FM311600 18013KT P6SM SCT035=



000
FTUS44 KFWD 311100
TAFDFW
TAF
KDFW 311130Z 3112/0118 16007KT P6SM SCT020 SCT300
     FM311600 18013KT P6SM SCT050=



000
FTUS44 KFWD 310800 AAA
TAFFTW
TAF AMD
KFTW 310858Z 3109/0106 14005KT P6SM SCT300
     FM311300 17010KT P6SM BKN025
     FM311600 17013KT P6SM SCT040=



000
FTUS44 KFWD 310800 AAA
TAFDFW
TAF AMD
KDFW 310858Z 3109/0112 14005KT P6SM SCT300
     FM311300 17010KT P6SM BKN025
     FM311600 17013KT P6SM SCT040=



000
FTUS44 KFWD 310800 AAA
TAFACT
TAF AMD
KACT 310858Z 3109/0106 17012KT P6SM SCT300
     FM311200 17010KT P6SM BKN015
     FM311600 18013KT P6SM SCT035=



000
FTUS44 KFWD 310500
TAFACT
TAF
KACT 310520Z 3106/0106 14005KT P6SM SCT300
     FM311200 17010KT P6SM BKN015
     FM311600 18013KT P6SM SCT035=



000
FTUS44 KFWD 310500
TAFDFW
TAF
KDFW 310520Z 3106/0112 17008KT P6SM SCT300
     FM311300 17010KT P6SM BKN025
     FM311600 17013KT P6SM SCT040=



000
FTUS44 KFWD 310500
TAFFTW
TAF
KFTW 310520Z 3106/0106 17008KT P6SM SCT300
     FM311600 18013KT P6SM SCT040=



000
FTUS44 KFWD 310300 AAA
TAFACT
TAF AMD
KACT 310304Z 3103/3124 14005KT P6SM SCT300
     FM311200 17010KT P6SM BKN015
     FM311600 18010KT P6SM SCT035=



000
FTUS44 KFWD 310300 AAA
TAFFTW
TAF AMD
KFTW 310304Z 3103/3124 15008KT P6SM SCT050=



000
FTUS44 KFWD 310300 AAA
TAFDFW
TAF AMD
KDFW 310304Z 3103/0106 14006KT P6SM SCT300
     FM311300 17010KT P6SM BKN025
     FM311600 17012KT P6SM SCT040=



000
FTUS44 KFWD 302300
TAFDFW
TAF
KDFW 302330Z 3100/0106 14006KT P6SM SCT050
     FM311300 17010KT P6SM BKN025
     FM311600 17012KT P6SM SCT040=



000
FTUS44 KFWD 302300
TAFFTW
TAF
KFTW 302330Z 3100/3124 15008KT P6SM SCT050=



000
FTUS44 KFWD 302300
TAFACT
TAF
KACT 302330Z 3100/3124 14005KT P6SM SCT050
     FM311200 17010KT P6SM BKN015
     FM311600 18010KT P6SM SCT035=



000
FTUS44 KFWD 302100 AAA
TAFACT
TAF AMD
KACT 302131Z 3022/3118 15005KT P6SM SCT050
     FM311200 17010KT P6SM BKN025
     FM311600 18010KT P6SM SCT030=



000
FTUS44 KFWD 302100 AAA
TAFFTW
TAF AMD
KFTW 302131Z 3022/3118 15008KT P6SM SCT050=



000
FTUS44 KFWD 302100 AAA
TAFDFW
TAF AMD
KDFW 302131Z 3022/3124 16008KT P6SM SCT040
     FM311300 17010KT P6SM BKN025
     FM311600 17012KT P6SM SCT030=



000
FTUS44 KFWD 301700
TAFDFW
TAF
KDFW 301728Z 3018/3124 16008KT P6SM SCT030
     FM311300 17010KT P6SM BKN025
     FM311600 17012KT P6SM SCT030=



000
FTUS44 KFWD 301700
TAFACT
TAF
KACT 301728Z 3018/3118 15005KT P6SM SCT030
     FM311200 17010KT P6SM BKN025
     FM311600 18010KT P6SM SCT030=



000
FTUS44 KFWD 301700
TAFFTW
TAF
KFTW 301728Z 3018/3118 15008KT P6SM SCT030=



000
FTUS44 KFWD 301600 AAC
TAFACT
TAF AMD
KACT 301601Z 3016/3112 00000KT P6SM OVC014
     FM301700 16008KT P6SM SCT250=



000
FTUS44 KFWD 301500 AAB
TAFDFW
TAF AMD
KDFW 301500Z 3015/3118 14006KT P6SM BKN020
     FM301600 15008KT P6SM SCT040 SCT250=



000
FTUS44 KFWD 301500 AAA
TAFFTW
TAF AMD
KFTW 301500Z 3015/3112 15008KT P6SM SCT040 SCT250=



000
FTUS44 KFWD 301500 AAB
TAFACT
TAF AMD
KACT 301500Z 3015/3112 VRB04KT P6SM BKN011
     FM301600 21004KT P6SM SCT020
     FM301800 14008KT P6SM SCT250=



000
FTUS44 KFWD 301400 AAA
TAFDFW
TAF AMD
KDFW 301420Z 3014/3118 14006KT P6SM BKN015
     FM301600 15008KT P6SM SCT040 SCT250=



000
FTUS44 KFWD 301300 AAA
TAFACT
TAF AMD
KACT 301310Z 3013/3112 12004KT P6SM BKN011
     FM301600 21004KT P6SM SCT020
     FM301800 14008KT P6SM SCT250=



000
FTUS44 KFWD 301100
TAFACT
TAF
KACT 301128Z 3012/3112 21004KT P6SM SCT020
     FM301600 14008KT P6SM SCT250=



000
FTUS44 KFWD 301100
TAFDFW
TAF
KDFW 301128Z 3012/3118 17008KT P6SM SCT020 SCT080
     FM301600 15008KT P6SM SCT040 SCT250=



000
FTUS44 KFWD 301100
TAFFTW
TAF
KFTW 301128Z 3012/3112 17008KT P6SM SCT020 SCT080
     FM301600 15008KT P6SM SCT040 SCT250=



000
FTUS44 KFWD 300800 AAA
TAFACT
TAF AMD
KACT 300859Z 3009/3106 16010KT P6SM SKC
     FM301000 16007KT 5SM BR SCT020
     FM301600 18010KT P6SM SCT250=



000
FTUS44 KFWD 300800 AAA
TAFDFW
TAF AMD
KDFW 300859Z 3009/3112 16009KT P6SM FEW090 SCT150
     FM301100 16008KT 5SM BR SCT020
     FM301600 18010KT P6SM SCT250=



000
FTUS44 KFWD 300800 AAA
TAFFTW
TAF AMD
KFTW 300859Z 3009/3106 16009KT P6SM FEW090 SCT150
     FM301100 16008KT 5SM BR SCT020
     FM301600 18010KT P6SM SCT250=



000
FTUS44 KFWD 300500
TAFFTW
TAF
KFTW 300520Z 3006/3106 16006KT P6SM SCT160 BKN250
     FM301100 16008KT 5SM BR SCT020
     FM301600 18010KT P6SM SCT250=



000
FTUS44 KFWD 300500
TAFACT
TAF
KACT 300520Z 3006/3106 14005KT P6SM SCT160 BKN250
     FM301000 16007KT 5SM BR BKN015
     FM301600 18010KT P6SM SCT250=



000
FTUS44 KFWD 300500
TAFDFW
TAF
KDFW 300520Z 3006/3112 16006KT P6SM SCT160 BKN250
     FM301100 16008KT 5SM BR SCT020
     FM301600 18010KT P6SM SCT250=



000
FTUS44 KFWD 300300 AAA
TAFDFW
TAF AMD
KDFW 300306Z 3003/3106 16008KT P6SM SCT160 BKN250
     FM301100 16008KT 5SM BR SCT020
     FM301600 18010KT P6SM SCT250=



000
FTUS44 KFWD 300300 AAA
TAFACT
TAF AMD
KACT 300306Z 3003/3024 14009KT P6SM SCT160 BKN250
     FM301000 16008KT 5SM BR BKN015
     FM301600 18010KT P6SM SCT250=



000
FTUS44 KFWD 300300 AAA
TAFFTW
TAF AMD
KFTW 300306Z 3003/3024 16008KT P6SM SCT160 BKN250
     FM301100 16008KT 5SM BR SCT020
     FM301600 18010KT P6SM SCT250=



000
FTUS44 KFWD 292300
TAFDFW
TAF
KDFW 292336Z 3000/3106 14014KT P6SM SCT050 BKN100
     FM300200 16008KT P6SM SCT100 BKN250=



000
FTUS44 KFWD 292300
TAFFTW
TAF
KFTW 292336Z 3000/3024 14014KT P6SM SCT050 BKN100
     FM300200 16008KT P6SM SCT100 BKN250=



000
FTUS44 KFWD 292300
TAFACT
TAF
KACT 292336Z 3000/3024 13013KT P6SM VCTS SCT060CB BKN250
     FM300200 16008KT P6SM SCT250=



000
FTUS44 KFWD 292000 AAA
TAFDFW
TAF AMD
KDFW 292057Z 2921/3024 16006KT P6SM SCT040 SCT250
     FM292300 18010KT P6SM VCSH BKN060
     FM300300 16008KT P6SM BKN250=



000
FTUS44 KFWD 292000 AAA
TAFACT
TAF AMD
KACT 292057Z 2921/3018 VRB03KT P6SM SCT250
     FM292300 18008KT P6SM VCTS SCT060CB
     FM300300 16007KT P6SM SCT250=



000
FTUS44 KFWD 292000 AAA
TAFFTW
TAF AMD
KFTW 292057Z 2921/3018 17005KT P6SM SCT040 SCT250
     FM292300 17009KT P6SM VCSH BKN060
     FM300300 16008KT P6SM BKN250=



000
FTUS44 KFWD 291700
TAFFTW
TAF
KFTW 291725Z 2918/3018 17007KT P6SM SCT030 BKN250
     FM292200 17009KT P6SM VCTS BKN060CB
     FM300300 16010KT P6SM BKN060=



000
FTUS44 KFWD 291700
TAFACT
TAF
KACT 291725Z 2918/3018 16008KT P6SM SCT030
     FM292200 18008KT P6SM VCTS BKN060CB
     FM300300 16007KT P6SM SCT250=



000
FTUS44 KFWD 291700
TAFDFW
TAF
KDFW 291725Z 2918/3024 16008KT P6SM SCT040 BKN250
     FM292200 18010KT P6SM VCTS BKN060CB
     FM300300 16010KT P6SM BKN060=



000
FTUS44 KFWD 291500 AAC
TAFFTW
TAF AMD
KFTW 291519Z 2915/3012 14005KT P6SM SCT008
     FM291600 16009KT P6SM SCT030 BKN100
     FM292200 17009KT P6SM VCTS BKN060CB
     FM300300 16010KT P6SM BKN060=



000
FTUS44 KFWD 291500 AAA
TAFDFW
TAF AMD
KDFW 291509Z 2915/3018 26009KT P6SM SCT040 BKN100
     FM291700 16008KT P6SM SCT050 BKN250
     FM292200 17010KT P6SM VCTS BKN060CB
     FM300300 16010KT P6SM BKN060=



000
FTUS44 KFWD 291500 AAB
TAFACT
TAF AMD
KACT 291509Z 2915/3012 03008KT P6SM VCSH SCT006
     FM291700 16008KT P6SM SCT050=



000
FTUS44 KFWD 291500 AAB
TAFFTW
TAF AMD
KFTW 291509Z 2915/3012 14005KT P6SM BKN005
     FM291600 16009KT P6SM SCT030 BKN100
     FM292200 17009KT P6SM VCTS BKN060CB
     FM300300 16010KT P6SM BKN060=



000
FTUS44 KFWD 291400 AAA
TAFFTW
TAF AMD
KFTW 291422Z 2914/3012 14006KT P6SM BKN005
     FM291600 16009KT P6SM SCT030 BKN100
     FM292200 17009KT P6SM VCTS BKN060CB
     FM300300 16010KT P6SM BKN060=



    US Dept of Commerce
    National Oceanic and Atmospheric Administration
    National Weather Service
    1325 East West Highway
    Silver Spring, MD 20910
    Page Author: NWS Internet Services Team
Disclaimer
Information Quality
Credits
Glossary
Privacy Policy
Freedom of Information Act (FOIA)
About Us
Career Opportunities